Time;durP1;ratioP1;P1;durP2;ratioP2;P2;SDS_P1;SDS_P2;PMS_P1;PMS_P2;Temp;Humidity;BMP_temperature;BMP_pressure;BME280_temperature;BME280_humidity;BME280_pressure;Samples;Min_cycle;Max_cycle;Signal;HPM_P1;HPM_P2
2022/08/03 00:01:02;;;;;;;5.80;4.18;;;;;;;26.14;49.28;99321.09;5091078;28;20649;-59
2022/08/03 00:03:29;;;;;;;5.72;4.28;;;;;;;26.09;50.10;99311.69;5090973;28;20245;-60
2022/08/03 00:05:57;;;;;;;7.28;5.00;;;;;;;26.00;50.82;99312.13;5090863;28;20194;-60
2022/08/03 00:08:24;;;;;;;5.25;4.13;;;;;;;25.98;50.92;99309.59;5089749;28;20436;-59
2022/08/03 00:10:50;;;;;;;5.03;3.90;;;;;;;25.92;51.20;99309.88;5090768;28;20195;-59
2022/08/03 00:13:18;;;;;;;3.88;3.60;;;;;;;25.82;51.49;99308.63;5090722;28;20214;-59
2022/08/03 00:15:45;;;;;;;4.10;3.80;;;;;;;25.74;51.86;99308.97;5090857;28;20568;-59
2022/08/03 00:18:12;;;;;;;5.88;4.18;;;;;;;25.62;52.61;99311.38;5090329;28;20191;-59
2022/08/03 00:20:39;;;;;;;4.72;3.78;;;;;;;25.56;52.58;99316.91;5089559;28;20201;-60
2022/08/03 00:23:07;;;;;;;4.35;3.95;;;;;;;25.49;53.16;99312.88;5085654;28;20439;-60
2022/08/03 00:25:35;;;;;;;3.90;3.60;;;;;;;25.46;53.17;99313.84;5082482;28;20207;-59
2022/08/03 00:28:02;;;;;;;4.10;3.80;;;;;;;25.39;53.44;99311.53;5070422;28;20279;-60
2022/08/03 00:30:29;;;;;;;9.40;4.13;;;;;;;25.36;53.60;99311.69;5069229;28;20206;-60
2022/08/03 00:32:56;;;;;;;4.70;3.80;;;;;;;25.18;53.82;99290.59;5081967;28;20689;-60
2022/08/03 00:35:23;;;;;;;6.40;4.27;;;;;;;25.25;53.60;99312.19;5090206;28;20666;-60
2022/08/03 00:37:50;;;;;;;4.17;3.77;;;;;;;25.21;53.48;99311.50;5090158;28;20203;-60
2022/08/03 00:40:19;;;;;;;4.27;3.97;;;;;;;25.15;53.64;99310.91;5090240;28;20206;-60
2022/08/03 00:42:49;;;;;;;4.13;3.83;;;;;;;25.10;53.67;99316.41;5090122;28;20194;-60
2022/08/03 00:45:17;;;;;;;4.57;4.17;;;;;;;25.04;53.97;99319.31;5090448;28;20187;-60
2022/08/03 00:47:44;;;;;;;3.90;3.60;;;;;;;25.00;54.35;99320.34;5089793;28;20191;-60
2022/08/03 00:50:11;;;;;;;4.63;3.87;;;;;;;24.93;54.62;99316.31;5090316;28;20195;-60
2022/08/03 00:52:38;;;;;;;5.97;3.83;;;;;;;24.86;54.69;99314.03;5090133;28;20609;-60
2022/08/03 00:55:05;;;;;;;6.87;4.07;;;;;;;24.81;54.80;99315.97;5090139;28;20592;-60
2022/08/03 00:57:33;;;;;;;4.10;3.80;;;;;;;24.74;55.24;99323.25;5090150;28;20226;-60
2022/08/03 01:00:00;;;;;;;4.50;4.20;;;;;;;24.76;55.66;99318.78;5090267;28;20190;-60
2022/08/03 01:02:28;;;;;;;4.50;4.10;;;;;;;24.72;55.29;99319.84;5090202;28;20268;-60
2022/08/03 01:04:55;;;;;;;4.53;4.13;;;;;;;24.68;55.62;99320.91;5089962;28;20684;-60
2022/08/03 01:07:31;;;;;;;4.80;4.30;;;;;;;24.67;55.80;99321.81;5089811;28;20209;-60
2022/08/03 01:10:07;;;;;;;6.30;4.00;;;;;;;24.66;56.13;99320.13;5090123;28;20186;-60
2022/08/03 01:12:40;;;;;;;5.90;4.57;;;;;;;24.66;56.19;99325.38;5089749;28;20221;-58
2022/08/03 01:15:15;;;;;;;5.67;4.23;;;;;;;24.63;56.41;99320.25;5090041;28;20210;-60
2022/08/03 01:17:51;;;;;;;4.83;4.43;;;;;;;24.61;56.48;99324.72;5089585;28;20198;-60
2022/08/03 01:20:20;;;;;;;5.40;4.53;;;;;;;24.62;56.57;99327.28;5089861;28;20683;-59
2022/08/03 01:23:20;;;;;;;4.77;4.33;;;;;;;24.58;56.63;99314.34;5089921;28;20198;-59
2022/08/03 01:26:09;;;;;;;6.10;5.20;;;;;;;24.57;57.25;99325.75;5089689;28;20665;-59
2022/08/03 01:28:57;;;;;;;6.77;4.90;;;;;;;24.50;57.64;99321.72;5089871;28;20194;-59
2022/08/03 01:31:29;;;;;;;8.77;5.67;;;;;;;24.51;57.45;99323.41;5089829;28;20190;-59
2022/08/03 01:34:00;;;;;;;5.93;5.10;;;;;;;24.50;57.47;99325.16;5089565;28;20215;-59
2022/08/03 01:36:33;;;;;;;6.00;5.50;;;;;;;24.46;57.74;99328.84;5089664;28;20202;-59
2022/08/03 01:39:02;;;;;;;6.30;5.70;;;;;;;24.44;58.18;99327.22;5089591;28;20195;-59
2022/08/03 01:41:33;;;;;;;9.50;5.93;;;;;;;24.43;57.87;99328.97;5091732;28;20209;-58
2022/08/03 01:44:02;;;;;;;8.73;6.13;;;;;;;24.50;57.89;99325.16;5086969;28;20440;-59
2022/08/03 01:46:32;;;;;;;7.93;6.20;;;;;;;24.51;57.89;99316.38;5090555;28;20447;-68
2022/08/03 01:49:01;;;;;;;8.40;5.70;;;;;;;24.54;57.98;99324.13;5092556;28;20237;-60
2022/08/03 01:51:29;;;;;;;6.70;6.00;;;;;;;24.45;57.78;99306.13;5092588;28;20491;-59
2022/08/03 01:53:58;;;;;;;6.73;5.23;;;;;;;24.50;57.76;99321.72;5092813;28;20207;-60
2022/08/03 01:56:27;;;;;;;7.93;5.50;;;;;;;24.46;58.36;99320.13;5090383;28;20758;-60
2022/08/03 01:58:54;;;;;;;11.73;6.30;;;;;;;24.44;57.85;99321.97;5092557;28;20249;-68
2022/08/03 02:01:24;;;;;;;8.83;5.50;;;;;;;24.43;57.75;99330.75;5092299;28;20239;-68
2022/08/03 02:03:54;;;;;;;6.27;5.60;;;;;;;24.42;58.21;99324.63;5092472;28;20187;-60
2022/08/03 02:06:22;;;;;;;6.10;5.50;;;;;;;24.45;58.38;99323.66;5092708;28;20183;-68
2022/08/03 02:08:51;;;;;;;5.50;5.00;;;;;;;24.42;58.67;99324.63;5092595;28;20261;-60
2022/08/03 02:11:19;;;;;;;5.97;5.17;;;;;;;24.35;58.80;99314.47;5088652;28;20689;-59
2022/08/03 02:13:48;;;;;;;5.50;5.03;;;;;;;24.41;58.59;99322.09;5092527;28;20199;-67
2022/08/03 02:16:15;;;;;;;6.07;5.03;;;;;;;24.36;58.35;99324.94;5091822;28;20684;-67
2022/08/03 02:18:42;;;;;;;6.07;5.13;;;;;;;24.37;58.18;99328.38;5088314;28;20191;-67
2022/08/03 02:21:13;;;;;;;4.97;4.50;;;;;;;24.34;58.13;99329.38;5089827;28;20202;-59
2022/08/03 02:23:40;;;;;;;5.65;4.68;;;;;;;24.34;57.84;99324.13;5091143;28;20432;-59
2022/08/03 02:26:15;;;;;;;4.70;4.23;;;;;;;24.32;58.05;99330.34;5089079;28;20658;-67
2022/08/03 02:28:45;;;;;;;4.50;4.20;;;;;;;24.26;57.87;99320.97;5090582;28;20653;-68
2022/08/03 02:31:15;;;;;;;6.53;4.90;;;;;;;24.24;57.83;99327.19;5088349;28;20190;-68
2022/08/03 02:33:47;;;;;;;6.53;4.93;;;;;;;24.19;58.16;99323.91;5080118;28;20268;-67
2022/08/03 02:36:19;;;;;;;5.20;4.57;;;;;;;24.17;57.95;99328.38;5092349;28;20202;-66
2022/08/03 02:38:52;;;;;;;5.87;4.10;;;;;;;24.14;57.67;99345.13;5092118;28;20654;-66
2022/08/03 02:41:24;;;;;;;4.83;4.20;;;;;;;24.08;57.43;99338.31;5092374;28;20199;-66
2022/08/03 02:43:55;;;;;;;4.10;3.80;;;;;;;24.06;56.51;99337.50;5092482;28;20183;-64
2022/08/03 02:46:27;;;;;;;4.27;3.87;;;;;;;24.04;55.95;99335.84;5092478;28;20203;-66
2022/08/03 02:48:56;;;;;;;3.80;3.50;;;;;;;24.02;55.96;99337.69;5091880;28;20444;-65
2022/08/03 02:51:28;;;;;;;4.63;3.43;;;;;;;24.06;55.56;99342.75;5092345;28;20202;-65
2022/08/03 02:53:56;;;;;;;3.80;3.50;;;;;;;24.02;55.26;99340.31;5091494;28;20203;-66
2022/08/03 02:56:25;;;;;;;4.03;3.63;;;;;;;24.03;55.44;99345.50;5084521;28;20567;-67
2022/08/03 02:58:53;;;;;;;4.40;3.33;;;;;;;24.03;55.43;99342.03;5087126;28;20226;-67
2022/08/03 03:01:21;;;;;;;3.53;3.23;;;;;;;24.03;55.27;99348.13;5091879;28;20186;-67
2022/08/03 03:03:50;;;;;;;4.27;3.33;;;;;;;23.95;55.79;99342.31;5091599;28;20190;-67
2022/08/03 03:06:17;;;;;;;4.17;3.47;;;;;;;24.01;55.71;99354.34;5091980;28;20191;-66
2022/08/03 03:08:46;;;;;;;5.33;3.50;;;;;;;24.00;56.32;99353.53;5091669;28;20278;-67
2022/08/03 03:11:15;;;;;;;3.80;3.50;;;;;;;24.01;56.74;99344.72;5091869;28;20217;-66
2022/08/03 03:13:43;;;;;;;4.27;3.50;;;;;;;24.05;56.47;99351.56;5091827;28;20299;-66
2022/08/03 03:16:12;;;;;;;4.90;3.67;;;;;;;24.03;56.39;99342.88;5092041;28;20179;-66
2022/08/03 03:18:40;;;;;;;4.75;3.70;;;;;;;24.06;56.41;99345.38;5090827;28;20840;-68
2022/08/03 03:21:09;;;;;;;3.83;3.43;;;;;;;24.10;55.57;99350.53;5091761;28;20191;-66
2022/08/03 03:23:38;;;;;;;4.50;3.43;;;;;;;24.09;55.94;99360.19;5091565;28;20191;-66
2022/08/03 03:26:07;;;;;;;3.63;3.33;;;;;;;24.03;55.68;99366.50;5091319;28;20707;-67
2022/08/03 03:28:35;;;;;;;4.17;3.33;;;;;;;23.99;55.40;99366.69;5091636;28;20194;-67
2022/08/03 03:31:03;;;;;;;4.80;4.40;;;;;;;23.95;55.05;99371.19;5091298;28;20585;-66
2022/08/03 03:33:30;;;;;;;4.50;3.70;;;;;;;23.92;55.34;99371.34;5090484;28;20211;-66
2022/08/03 03:35:58;;;;;;;4.90;3.43;;;;;;;23.92;55.22;99371.34;5076364;28;20199;-59
2022/08/03 03:38:25;;;;;;;3.60;3.40;;;;;;;23.87;55.50;99370.66;5077869;28;20203;-59
2022/08/03 03:40:52;;;;;;;4.20;3.70;;;;;;;23.88;55.37;99375.00;5091087;28;20214;-59
2022/08/03 03:43:22;;;;;;;4.50;3.40;;;;;;;23.90;55.97;99373.16;5091284;28;20248;-60
2022/08/03 03:45:51;;;;;;;6.77;3.97;;;;;;;23.90;55.96;99383.66;5090907;28;20190;-60
2022/08/03 03:48:19;;;;;;;3.93;3.60;;;;;;;23.88;54.74;99380.25;5091006;28;20277;-59
2022/08/03 03:50:46;;;;;;;3.97;3.67;;;;;;;23.81;54.76;99375.31;5091011;28;20244;-60
2022/08/03 03:53:14;;;;;;;6.35;3.70;;;;;;;23.78;54.89;99384.16;5089471;28;20467;-59
2022/08/03 03:55:41;;;;;;;5.10;4.70;;;;;;;23.85;54.85;99380.38;5090794;28;20195;-59
2022/08/03 03:58:08;;;;;;;4.13;3.60;;;;;;;23.80;54.94;99386.72;5090425;28;20238;-59
2022/08/03 04:00:36;;;;;;;3.70;3.40;;;;;;;23.78;55.17;99391.16;5090436;28;20198;-60
2022/08/03 04:03:03;;;;;;;3.80;3.50;;;;;;;23.74;55.18;99392.19;5090729;28;20190;-59
2022/08/03 04:11:07;;;;;;;4.20;3.90;;;;;;;23.81;55.16;99399.78;5090441;28;20554;-59
2022/08/03 04:13:37;;;;;;;4.30;3.90;;;;;;;23.86;55.26;99399.59;5090479;28;20226;-59
2022/08/03 04:16:09;;;;;;;5.27;4.77;;;;;;;23.93;55.28;99396.66;5090218;28;20191;-59
2022/08/03 04:18:38;;;;;;;4.90;4.50;;;;;;;23.95;54.65;99396.63;5090186;28;20677;-59
2022/08/03 04:21:10;;;;;;;6.27;3.57;;;;;;;23.94;54.27;99414.13;5090290;28;20190;-58
2022/08/03 04:23:41;;;;;;;3.90;3.60;;;;;;;23.93;54.49;99412.41;5090066;28;20569;-58
2022/08/03 04:26:12;;;;;;;6.33;4.43;;;;;;;23.93;54.23;99409.78;5090465;28;20249;-58
2022/08/03 04:28:41;;;;;;;5.20;4.07;;;;;;;24.01;54.55;99410.34;5089878;28;20432;-58
2022/08/03 04:31:10;;;;;;;5.47;3.70;;;;;;;24.07;54.66;99423.22;5088863;28;20669;-58
2022/08/03 04:33:39;;;;;;;4.20;3.87;;;;;;;24.06;54.16;99424.13;5089320;28;20214;-58
2022/08/03 04:36:08;;;;;;;5.23;3.70;;;;;;;24.05;54.17;99418.94;5090410;28;20191;-59
2022/08/03 04:38:44;;;;;;;4.60;4.20;;;;;;;23.98;54.74;99414.88;5089982;28;20206;-59
2022/08/03 04:41:11;;;;;;;3.90;3.60;;;;;;;24.01;54.83;99420.84;5089952;28;20190;-58
2022/08/03 04:43:40;;;;;;;3.70;3.40;;;;;;;23.99;55.06;99414.81;5089905;28;20236;-58
2022/08/03 04:46:09;;;;;;;6.57;4.00;;;;;;;24.00;54.41;99420.91;5089877;28;20201;-58
2022/08/03 04:48:37;;;;;;;8.77;5.37;;;;;;;24.00;55.04;99419.16;5085093;28;20202;-59
2022/08/03 04:51:04;;;;;;;3.93;3.60;;;;;;;24.10;53.95;99424.91;5087447;28;20551;-59
2022/08/03 04:53:31;;;;;;;4.63;4.13;;;;;;;24.01;54.48;99402.47;5085763;28;20456;-60
2022/08/03 04:56:04;;;;;;;10.80;3.80;;;;;;;24.25;53.38;99434.81;5084544;28;20226;-59
2022/08/03 04:58:31;;;;;;;3.87;3.57;;;;;;;24.32;53.37;99424.91;5085394;28;20223;-60
2022/08/03 05:00:59;;;;;;;5.37;4.90;;;;;;;24.32;53.17;99432.78;5087662;28;20205;-60
2022/08/03 05:03:27;;;;;;;6.60;4.17;;;;;;;24.25;53.79;99423.44;5086968;28;20185;-59
2022/08/03 05:05:57;;;;;;;7.63;4.95;;;;;;;24.36;54.21;99429.13;5087752;28;20463;-58
2022/08/03 05:08:24;;;;;;;7.23;4.53;;;;;;;24.48;53.89;99424.22;5088470;28;20195;-59
2022/08/03 05:10:53;;;;;;;4.97;4.27;;;;;;;24.54;52.84;99434.47;5089239;28;20182;-59
2022/08/03 05:13:19;;;;;;;4.57;3.70;;;;;;;24.47;53.20;99430.41;5085558;28;20852;-59
2022/08/03 05:15:46;;;;;;;8.03;4.13;;;;;;;24.52;52.93;99425.81;5087782;28;20199;-59
2022/08/03 05:18:13;;;;;;;7.37;4.40;;;;;;;24.58;53.30;99429.94;5092674;28;20275;-59
2022/08/03 05:20:41;;;;;;;4.83;4.00;;;;;;;24.67;53.17;99434.78;5090246;28;20244;-59
2022/08/03 05:23:08;;;;;;;4.07;3.77;;;;;;;24.72;52.49;99432.84;5091227;28;20283;-59
2022/08/03 05:25:35;;;;;;;7.83;4.00;;;;;;;24.70;52.06;99439.94;5091935;28;20201;-59
2022/08/03 05:28:02;;;;;;;3.73;3.40;;;;;;;24.63;51.99;99441.13;5092483;28;20199;-60
2022/08/03 05:30:28;;;;;;;4.60;4.00;;;;;;;24.77;52.52;99451.91;5092370;28;20206;-59
2022/08/03 05:32:55;;;;;;;4.55;3.70;;;;;;;24.83;52.36;99448.19;5091833;28;20439;-60
2022/08/03 05:35:24;;;;;;;6.23;4.63;;;;;;;25.05;51.99;99462.16;5092960;28;20661;-60
2022/08/03 05:37:52;;;;;;;4.20;3.80;;;;;;;25.16;51.62;99460.72;5092750;28;20290;-60
2022/08/03 05:40:19;;;;;;;6.60;4.00;;;;;;;25.22;51.50;99460.47;5092681;28;20201;-60
2022/08/03 05:42:46;;;;;;;4.73;4.00;;;;;;;25.36;50.94;99456.38;5093047;28;20187;-60
2022/08/03 05:45:15;;;;;;;5.07;3.87;;;;;;;25.42;50.64;99471.88;5092838;28;20191;-60
2022/08/03 05:47:43;;;;;;;4.93;4.00;;;;;;;25.38;50.33;99460.63;5092275;28;20654;-60
2022/08/03 05:50:10;;;;;;;6.50;4.60;;;;;;;25.39;50.23;99466.75;5092050;28;20203;-60
2022/08/03 05:52:37;;;;;;;6.83;3.87;;;;;;;25.42;50.26;99471.88;5092556;28;20202;-60
2022/08/03 05:55:06;;;;;;;9.03;3.80;;;;;;;25.44;49.92;99456.88;5092449;28;20254;-60
2022/08/03 05:57:33;;;;;;;11.50;4.63;;;;;;;25.42;49.79;99462.22;5092293;28;20229;-60
2022/08/03 06:00:00;;;;;;;5.32;3.78;;;;;;;25.48;49.63;99459.38;5091651;28;20456;-60
2022/08/03 06:02:27;;;;;;;4.60;3.73;;;;;;;25.63;49.60;99463.06;5092197;28;20658;-59
2022/08/03 06:04:53;;;;;;;8.70;3.93;;;;;;;25.70;49.35;99462.72;5089312;28;20194;-59
2022/08/03 06:07:20;;;;;;;5.57;3.70;;;;;;;25.65;48.77;99464.72;5091964;28;20206;-59
2022/08/03 06:09:47;;;;;;;5.93;4.03;;;;;;;25.70;49.10;99464.50;5092110;28;20205;-59
2022/08/03 06:12:15;;;;;;;4.77;3.80;;;;;;;25.76;48.88;99459.81;5092548;28;20195;-59
2022/08/03 06:14:42;;;;;;;6.97;4.20;;;;;;;25.72;48.88;99460.00;5075642;28;20250;-60
2022/08/03 06:17:09;;;;;;;4.53;4.13;;;;;;;25.70;51.74;99464.50;5072380;28;20299;-61
2022/08/03 06:19:36;;;;;;;10.47;4.60;;;;;;;25.97;51.97;99476.38;5072259;28;20547;-60
2022/08/03 06:22:03;;;;;;;8.47;4.20;;;;;;;26.07;48.45;99466.28;5089136;28;20199;-59
2022/08/03 06:24:30;;;;;;;6.93;4.33;;;;;;;26.20;47.91;99473.56;5091966;28;20666;-63
2022/08/03 06:26:57;;;;;;;9.33;4.53;;;;;;;26.21;48.06;99469.13;5091675;28;20191;-60
2022/08/03 06:29:25;;;;;;;5.00;4.50;;;;;;;26.44;48.73;99476.78;5091304;28;20569;-60
2022/08/03 06:31:52;;;;;;;8.30;4.20;;;;;;;26.55;46.12;99482.41;5091788;28;20191;-60
2022/08/03 06:34:19;;;;;;;7.63;4.47;;;;;;;26.64;46.44;99478.47;5091912;28;20215;-60
2022/08/03 06:36:47;;;;;;;5.43;4.10;;;;;;;26.68;45.85;99480.00;5090212;28;20456;-61
2022/08/03 06:39:14;;;;;;;8.87;4.23;;;;;;;26.70;46.42;99480.81;5080558;28;20437;-60
2022/08/03 06:41:41;;;;;;;10.73;4.03;;;;;;;26.82;45.38;99488.13;5071929;28;20199;-59
2022/08/03 06:44:07;;;;;;;5.17;4.00;;;;;;;26.85;45.38;99487.97;5071541;28;20677;-60
2022/08/03 06:46:36;;;;;;;5.60;4.07;;;;;;;26.89;45.53;99489.53;5071454;28;20214;-59
2022/08/03 06:49:03;;;;;;;4.53;4.13;;;;;;;26.60;45.85;99490.94;5071328;28;20199;-60
2022/08/03 06:51:29;;;;;;;4.53;3.80;;;;;;;26.45;46.42;99480.28;5090368;28;20217;-59
2022/08/03 06:53:56;;;;;;;5.78;4.75;;;;;;;26.65;46.97;99482.78;5091027;28;20226;-60
2022/08/03 06:56:23;;;;;;;4.57;4.15;;;;;;;26.61;46.06;99479.47;5091485;28;20220;-60
2022/08/03 06:58:51;;;;;;;4.80;4.30;;;;;;;26.61;45.79;99468.06;5091082;28;20269;-60
2022/08/03 07:01:17;;;;;;;4.33;3.93;;;;;;;26.59;45.94;99469.94;5090195;28;20229;-61
2022/08/03 07:03:46;;;;;;;8.18;4.63;;;;;;;26.65;45.65;99474.88;5089401;28;20187;-60
2022/08/03 07:06:13;;;;;;;5.30;4.80;;;;;;;26.70;46.08;99475.53;5089907;28;20198;-59
2022/08/03 07:08:39;;;;;;;5.77;4.40;;;;;;;26.91;46.44;99475.34;5090477;28;20195;-60
2022/08/03 07:11:06;;;;;;;6.40;4.82;;;;;;;27.14;45.27;99473.31;5090443;28;20187;-59
2022/08/03 07:13:33;;;;;;;7.63;4.78;;;;;;;27.17;44.74;99470.50;5090079;28;20190;-59
2022/08/03 07:16:00;;;;;;;4.90;4.30;;;;;;;27.16;45.27;99469.66;5090979;28;20191;-59
2022/08/03 07:18:27;;;;;;;9.68;4.65;;;;;;;27.17;45.08;99468.72;5091244;28;20663;-59
2022/08/03 07:20:55;;;;;;;4.68;4.25;;;;;;;27.19;44.93;99471.28;5091017;28;20726;-59
2022/08/03 07:23:22;;;;;;;6.05;4.97;;;;;;;27.22;44.66;99468.50;5090938;28;20198;-61
2022/08/03 07:25:49;;;;;;;4.95;4.45;;;;;;;27.35;45.18;99472.19;5088269;28;20190;-60
2022/08/03 07:28:16;;;;;;;5.90;4.82;;;;;;;27.48;44.84;99475.91;5085745;28;20202;-60
2022/08/03 07:30:43;;;;;;;5.30;4.80;;;;;;;27.57;44.80;99471.94;5089961;28;20179;-60
2022/08/03 07:33:09;;;;;;;6.15;4.40;;;;;;;27.51;43.79;99481.03;5089610;28;20292;-60
2022/08/03 07:35:36;;;;;;;7.40;4.95;;;;;;;27.61;43.97;99468.22;5089946;28;20218;-60
2022/08/03 07:38:07;;;;;;;7.03;4.85;;;;;;;27.83;43.54;99472.22;5090052;28;20206;-60
2022/08/03 07:40:34;;;;;;;7.72;5.85;;;;;;;28.02;43.38;99480.00;5090151;28;20199;-60
2022/08/03 07:43:02;;;;;;;5.97;5.38;;;;;;;28.19;43.75;99485.25;5090178;28;20450;-61
2022/08/03 07:45:29;;;;;;;9.30;5.38;;;;;;;28.34;43.09;99480.88;5090320;28;20297;-60
2022/08/03 07:47:56;;;;;;;9.15;8.23;;;;;;;28.44;42.75;99480.28;5090477;28;20368;-60
2022/08/03 07:50:23;;;;;;;7.65;5.32;;;;;;;28.58;43.56;99472.41;5090102;28;20191;-59
2022/08/03 07:52:52;;;;;;;7.63;5.20;;;;;;;28.94;43.40;99487.09;5090231;28;20585;-59
2022/08/03 07:55:22;;;;;;;7.90;6.22;;;;;;;29.03;42.53;99494.50;5090029;28;20221;-60
2022/08/03 07:57:59;;;;;;;6.07;5.57;;;;;;;28.92;42.39;99487.22;5089587;28;20237;-60
2022/08/03 08:00:26;;;;;;;7.13;5.90;;;;;;;28.78;43.33;99499.53;5089609;28;20277;-59
2022/08/03 08:02:53;;;;;;;6.70;6.10;;;;;;;28.75;43.70;99489.97;5089464;28;20195;-60
2022/08/03 08:05:20;;;;;;;7.00;6.10;;;;;;;28.91;42.86;99492.56;5089693;28;20194;-59
2022/08/03 08:07:47;;;;;;;7.13;5.28;;;;;;;28.90;42.53;99493.53;5088869;28;20441;-60
2022/08/03 08:10:14;;;;;;;8.90;5.13;;;;;;;29.01;43.12;99491.09;5088592;28;20187;-60
2022/08/03 08:12:42;;;;;;;5.15;4.65;;;;;;;28.95;43.03;99499.41;5087457;28;20191;-60
2022/08/03 08:15:09;;;;;;;5.82;5.43;;;;;;;29.03;42.90;99492.72;5088654;28;20215;-59
2022/08/03 08:17:43;;;;;;;6.38;5.53;;;;;;;29.13;42.92;99488.59;5088774;28;20187;-60
2022/08/03 08:20:12;;;;;;;5.40;5.00;;;;;;;29.23;42.40;99489.75;5088409;28;20196;-60
2022/08/03 08:22:39;;;;;;;8.32;7.30;;;;;;;29.37;42.86;99494.22;5088305;28;20692;-60
2022/08/03 08:25:06;;;;;;;6.75;6.15;;;;;;;29.41;42.31;99493.09;5088370;28;20186;-60
2022/08/03 08:27:33;;;;;;;6.95;6.25;;;;;;;29.59;42.10;99483.16;5088818;28;20213;-61
2022/08/03 08:30:05;;;;;;;8.50;7.55;;;;;;;29.71;42.35;99459.44;5088944;28;20197;-60
2022/08/03 08:32:31;;;;;;;8.00;7.20;;;;;;;29.80;42.14;99477.41;5089406;28;20653;-60
2022/08/03 08:34:58;;;;;;;7.40;6.20;;;;;;;29.72;40.97;99477.00;5088835;28;20218;-60
2022/08/03 08:37:25;;;;;;;6.75;6.07;;;;;;;29.57;42.00;99483.28;5088811;28;20199;-60
2022/08/03 08:39:52;;;;;;;7.65;6.68;;;;;;;29.86;41.43;99481.47;5088767;28;20191;-59
2022/08/03 08:42:19;;;;;;;7.90;7.15;;;;;;;30.18;41.27;99476.81;5088907;28;20190;-60
2022/08/03 08:44:45;;;;;;;5.75;5.32;;;;;;;29.99;40.73;99479.78;5089141;28;20191;-60
2022/08/03 08:47:14;;;;;;;6.53;5.68;;;;;;;29.85;41.01;99479.78;5089196;28;20195;-60
2022/08/03 08:49:42;;;;;;;5.50;5.10;;;;;;;29.87;40.99;99485.84;5088926;28;20302;-60
2022/08/03 08:52:09;;;;;;;6.18;5.68;;;;;;;29.70;40.99;99486.00;5091717;28;20659;-60
2022/08/03 08:54:37;;;;;;;5.80;5.30;;;;;;;29.75;40.99;99484.78;5083444;28;20302;-60
2022/08/03 08:57:05;;;;;;;5.57;5.07;;;;;;;29.40;41.04;99485.25;5076981;28;20198;-60
2022/08/03 08:59:33;;;;;;;8.07;5.00;;;;;;;29.17;41.84;99476.03;5092693;28;20248;-59
2022/08/03 09:02:00;;;;;;;13.52;12.23;;;;;;;29.43;42.49;99485.91;5092550;28;20198;-59
2022/08/03 09:04:29;;;;;;;7.15;6.55;;;;;;;29.60;41.52;99461.91;5092499;28;20194;-60
2022/08/03 09:06:56;;;;;;;9.77;8.75;;;;;;;29.90;41.10;99485.66;5092816;28;20251;-60
2022/08/03 09:09:23;;;;;;;10.27;7.35;;;;;;;29.88;41.23;99482.25;5092818;28;20198;-60
2022/08/03 09:11:50;;;;;;;5.47;5.07;;;;;;;29.83;40.13;99479.88;5072265;28;20200;-60
2022/08/03 09:14:17;;;;;;;6.20;5.60;;;;;;;29.89;39.49;99472.50;5072119;28;20438;-59
2022/08/03 09:16:59;;;;;;;6.57;5.50;;;;;;;30.18;39.38;99474.16;5071798;28;20452;-60
2022/08/03 09:19:26;;;;;;;10.95;7.25;;;;;;;30.56;39.31;99477.84;5072094;28;20196;-58
2022/08/03 09:22:11;;;;;;;6.43;5.82;;;;;;;30.93;38.52;99463.03;5072184;28;20674;-60
2022/08/03 09:24:38;;;;;;;9.88;6.22;;;;;;;30.84;38.02;99469.75;5072137;28;20196;-60
2022/08/03 09:27:12;;;;;;;6.35;5.85;;;;;;;30.92;38.19;99462.16;5072189;28;20188;-59
2022/08/03 09:29:39;;;;;;;6.70;5.90;;;;;;;31.04;37.34;99459.63;5072329;28;20210;-59
2022/08/03 09:32:06;;;;;;;6.30;5.80;;;;;;;31.13;37.65;99465.16;5072281;28;20715;-60
2022/08/03 09:34:32;;;;;;;6.00;5.50;;;;;;;31.22;37.08;99453.06;5072628;28;20215;-60
2022/08/03 09:36:59;;;;;;;5.53;5.00;;;;;;;31.35;37.50;99459.22;5083641;28;20191;-60
2022/08/03 09:39:30;;;;;;;6.00;5.40;;;;;;;31.41;37.29;99454.31;5091833;28;20274;-61
2022/08/03 09:42:08;;;;;;;7.07;6.47;;;;;;;31.56;36.37;99457.75;5092644;28;20206;-60
2022/08/03 09:44:36;;;;;;;5.57;5.18;;;;;;;31.51;35.99;99455.41;5092251;28;20197;-59
2022/08/03 09:47:04;;;;;;;5.85;5.25;;;;;;;31.70;36.21;99456.78;5091757;28;20505;-59
2022/08/03 09:49:31;;;;;;;6.45;5.28;;;;;;;31.58;35.99;99450.53;5092635;28;20202;-59
2022/08/03 09:52:02;;;;;;;6.47;5.30;;;;;;;31.68;36.57;99450.72;5092672;28;20195;-59
2022/08/03 09:54:32;;;;;;;5.38;4.88;;;;;;;31.70;36.10;99446.97;5092381;28;20193;-59
2022/08/03 09:57:00;;;;;;;7.40;5.32;;;;;;;31.96;35.57;99422.06;5092407;28;20706;-58
2022/08/03 09:59:29;;;;;;;6.50;4.70;;;;;;;32.00;34.82;99434.19;5086320;28;20292;-59
2022/08/03 10:01:57;;;;;;;4.75;4.13;;;;;;;32.33;34.32;99436.19;5075035;28;20200;-59
2022/08/03 10:04:24;;;;;;;7.10;5.15;;;;;;;32.63;35.10;99427.78;5091959;28;20206;-58
2022/08/03 10:07:07;;;;;;;7.88;6.03;;;;;;;32.52;34.53;99428.56;5092239;28;20186;-58
2022/08/03 10:09:36;;;;;;;4.82;4.43;;;;;;;32.11;34.84;99436.91;5092190;28;20195;-59
2022/08/03 10:12:10;;;;;;;5.60;4.50;;;;;;;31.60;35.72;99424.69;5092034;28;20191;-59
2022/08/03 10:14:38;;;;;;;7.50;4.40;;;;;;;31.25;36.41;99424.50;5071791;28;20429;-59
2022/08/03 10:17:05;;;;;;;4.82;4.50;;;;;;;31.15;36.60;99427.91;5071793;28;20249;-59
2022/08/03 10:19:33;;;;;;;6.72;5.00;;;;;;;30.86;37.20;99419.22;5071413;28;20245;-58
2022/08/03 10:22:03;;;;;;;5.07;4.68;;;;;;;31.01;36.65;99425.34;5088515;28;20221;-59
2022/08/03 10:24:33;;;;;;;6.47;5.00;;;;;;;31.30;36.81;99418.84;5091891;28;20263;-59
2022/08/03 10:27:05;;;;;;;5.20;4.70;;;;;;;31.53;36.16;99431.41;5091002;28;20195;-58
2022/08/03 10:29:37;;;;;;;5.15;4.75;;;;;;;31.54;36.28;99422.47;5091587;28;20273;-59
2022/08/03 10:32:10;;;;;;;5.10;4.70;;;;;;;31.27;36.73;99421.72;5091603;28;20997;-59
2022/08/03 10:34:42;;;;;;;6.00;5.60;;;;;;;31.04;37.10;99414.50;5091581;28;20191;-60
2022/08/03 10:37:11;;;;;;;5.57;4.97;;;;;;;30.73;37.89;99418.38;5090137;28;20199;-59
2022/08/03 10:39:52;;;;;;;5.88;5.47;;;;;;;30.76;38.06;99416.34;5085136;28;20209;-59
2022/08/03 10:42:23;;;;;;;6.95;5.75;;;;;;;30.70;38.09;99419.41;5090013;28;20346;-66
2022/08/03 10:44:56;;;;;;;7.18;5.75;;;;;;;30.50;38.85;99411.94;5088695;28;20194;-66
2022/08/03 10:47:23;;;;;;;5.68;5.20;;;;;;;30.79;38.03;99408.16;5088470;28;20198;-66
2022/08/03 10:49:50;;;;;;;5.70;5.25;;;;;;;31.05;37.72;99411.72;5089412;28;20198;-66
2022/08/03 10:52:17;;;;;;;8.50;5.70;;;;;;;31.07;37.40;99415.13;5070840;28;20678;-66
2022/08/03 10:57:49;;;;;;;8.88;5.07;;;;;;;31.21;37.79;99403.53;5085362;28;20268;-65
2022/08/03 11:00:17;;;;;;;5.60;5.10;;;;;;;31.06;38.08;99402.81;5087963;28;20190;-65
2022/08/03 11:03:08;;;;;;;5.72;5.32;;;;;;;31.29;37.33;99407.38;5090336;28;20562;-67
2022/08/03 11:05:41;;;;;;;5.40;4.90;;;;;;;31.56;36.41;99394.00;5088023;28;20182;-66
2022/08/03 11:08:27;;;;;;;5.88;5.38;;;;;;;32.13;35.82;99396.94;5087100;28;20203;-67
2022/08/03 11:10:56;;;;;;;5.82;5.22;;;;;;;32.04;35.22;99369.19;5088718;28;20187;-65
2022/08/03 11:13:29;;;;;;;5.95;5.28;;;;;;;32.05;35.92;99392.19;5090164;28;20202;-65
2022/08/03 11:15:58;;;;;;;7.00;4.90;;;;;;;31.98;35.82;99384.72;5087194;28;20202;-67
2022/08/03 11:18:26;;;;;;;5.78;5.28;;;;;;;31.71;36.62;99386.72;5090417;28;20577;-66
2022/08/03 11:20:54;;;;;;;5.85;5.43;;;;;;;31.57;36.62;99378.88;5090679;28;20270;-65
2022/08/03 11:23:41;;;;;;;5.95;5.45;;;;;;;31.34;36.54;99381.34;5090888;28;20213;-64
2022/08/03 11:26:21;;;;;;;5.78;5.28;;;;;;;31.42;36.77;99380.81;5090541;28;20649;-64
2022/08/03 11:28:49;;;;;;;5.10;4.70;;;;;;;31.51;35.73;99357.13;5090823;28;20289;-65
2022/08/03 11:31:55;;;;;;;5.80;5.30;;;;;;;31.87;35.91;99377.53;5086443;28;20647;-65
2022/08/03 11:34:23;;;;;;;5.18;4.88;;;;;;;31.80;34.88;99372.78;5075933;28;20199;-66
2022/08/03 11:37:22;;;;;;;5.65;5.07;;;;;;;31.90;34.94;99357.84;5090719;28;20283;-66
2022/08/03 11:39:55;;;;;;;6.68;5.10;;;;;;;32.22;34.49;99367.00;5090930;28;20202;-65
2022/08/03 11:42:44;;;;;;;5.72;5.22;;;;;;;32.19;34.05;99318.50;5090886;28;20201;-66
2022/08/03 11:45:13;;;;;;;4.78;4.38;;;;;;;32.22;33.72;99361.69;5090472;28;20256;-66
2022/08/03 11:47:42;;;;;;;4.75;4.45;;;;;;;32.44;33.94;99366.25;5090871;28;21274;-67
2022/08/03 11:50:10;;;;;;;5.00;4.60;;;;;;;32.50;34.06;99355.97;5090584;28;20717;-66
2022/08/03 11:52:39;;;;;;;5.90;4.55;;;;;;;32.70;33.56;99365.13;5090417;28;20187;-67